Terminal Aerodrome Forecast
Issued by NWS Lake Charles, LA

Home | Current Version | Previous Version | Text Only | Print | Product List | Glossary On
Versions: 1 2 3 4 5 6 7 8 9 10 11 12 13 14 15 16
000
FTUS44 KLCH 011720
TAFLFT
TAF
KLFT 011720Z 0118/0218 18012G20KT P6SM SCT025 BKN035
     FM020000 17008KT P6SM SCT025
     FM020300 16005KT P6SM SCT005 BKN012
      TEMPO 0211/0215 3SM BR OVC005
     FM021500 18014G22KT P6SM VCSH BKN025=

USA.gov is the U.S. government's official web portal to all federal, state and local government web resources and services.